Terminal Aerodrome Forecast
Issued by NWS Tampa Bay Area, FL

Home | Current Version | Previous Version | Text Only | Print | Product List | Glossary On
Versions: 1 2 3 4 5 6 7 8 9 10 11 12 13 14
000
FTUS42 KTBW 041121
TAFSRQ
TAF
KSRQ 041121Z 0412/0512 08010KT P6SM SKC
     FM041500 12012G18KT P6SM SCT030 SCT250
     FM041800 15010KT P6SM SCT035 SCT250
     FM042100 16009KT P6SM BKN035
     FM050700 12005KT 4SM BR BKN012=

USA.gov is the U.S. government's official web portal to all federal, state and local government web resources and services.